sensor_id;sensor_type;location;lat;lon;timestamp;temperature;humidity
780;DHT22;373;49.342;8.146;2022-09-11T00:00:42;17.30;99.90
780;DHT22;373;49.342;8.146;2022-09-11T00:03:09;17.10;99.90
780;DHT22;373;49.342;8.146;2022-09-11T00:05:37;17.10;99.90
780;DHT22;373;49.342;8.146;2022-09-11T00:08:05;17.10;99.90
780;DHT22;373;49.342;8.146;2022-09-11T00:10:34;17.20;99.90
780;DHT22;373;49.342;8.146;2022-09-11T00:13:07;17.20;99.90
780;DHT22;373;49.342;8.146;2022-09-11T00:15:37;17.40;99.90
780;DHT22;373;49.342;8.146;2022-09-11T00:18:05;17.30;99.90
780;DHT22;373;49.342;8.146;2022-09-11T00:20:33;17.30;99.90
780;DHT22;373;49.342;8.146;2022-09-11T00:23:01;17.20;99.90
780;DHT22;373;49.342;8.146;2022-09-11T00:25:28;17.30;99.90
780;DHT22;373;49.342;8.146;2022-09-11T00:27:55;17.20;99.90
780;DHT22;373;49.342;8.146;2022-09-11T00:30:24;17.20;99.90
780;DHT22;373;49.342;8.146;2022-09-11T00:32:51;17.10;99.90
780;DHT22;373;49.342;8.146;2022-09-11T00:35:18;17.40;99.90
780;DHT22;373;49.342;8.146;2022-09-11T00:37:45;17.30;99.90
780;DHT22;373;49.342;8.146;2022-09-11T00:40:13;17.30;99.90
780;DHT22;373;49.342;8.146;2022-09-11T00:42:41;17.30;99.90
780;DHT22;373;49.342;8.146;2022-09-11T00:45:18;17.30;99.90
780;DHT22;373;49.342;8.146;2022-09-11T00:47:48;17.30;99.90
780;DHT22;373;49.342;8.146;2022-09-11T00:50:18;17.30;99.90
780;DHT22;373;49.342;8.146;2022-09-11T00:52:49;17.30;99.90
780;DHT22;373;49.342;8.146;2022-09-11T00:55:17;17.30;99.90
780;DHT22;373;49.342;8.146;2022-09-11T00:57:49;17.50;99.90
780;DHT22;373;49.342;8.146;2022-09-11T01:00:17;17.40;99.90
780;DHT22;373;49.342;8.146;2022-09-11T01:02:48;17.30;99.90
780;DHT22;373;49.342;8.146;2022-09-11T01:05:16;17.50;99.90
780;DHT22;373;49.342;8.146;2022-09-11T01:07:46;17.40;99.90
780;DHT22;373;49.342;8.146;2022-09-11T01:10:13;17.40;99.90
780;DHT22;373;49.342;8.146;2022-09-11T01:12:46;17.40;99.90
780;DHT22;373;49.342;8.146;2022-09-11T01:15:22;17.70;99.90
780;DHT22;373;49.342;8.146;2022-09-11T01:18:00;17.50;99.90
780;DHT22;373;49.342;8.146;2022-09-11T01:20:40;17.40;99.90
780;DHT22;373;49.342;8.146;2022-09-11T01:23:50;17.40;99.90
780;DHT22;373;49.342;8.146;2022-09-11T01:29:28;17.40;99.90
780;DHT22;373;49.342;8.146;2022-09-11T01:32:01;17.50;99.90
780;DHT22;373;49.342;8.146;2022-09-11T01:34:34;17.50;99.90
780;DHT22;373;49.342;8.146;2022-09-11T01:37:06;17.70;99.90
780;DHT22;373;49.342;8.146;2022-09-11T01:39:39;17.80;99.90
780;DHT22;373;49.342;8.146;2022-09-11T01:42:11;18.00;99.90
780;DHT22;373;49.342;8.146;2022-09-11T01:44:46;18.00;99.90
780;DHT22;373;49.342;8.146;2022-09-11T01:47:17;18.00;99.90
780;DHT22;373;49.342;8.146;2022-09-11T01:49:47;17.90;99.90
780;DHT22;373;49.342;8.146;2022-09-11T01:52:23;17.90;99.90
780;DHT22;373;49.342;8.146;2022-09-11T01:54:55;17.60;99.90
780;DHT22;373;49.342;8.146;2022-09-11T01:57:30;17.40;99.90
780;DHT22;373;49.342;8.146;2022-09-11T02:00:07;17.50;99.90
780;DHT22;373;49.342;8.146;2022-09-11T02:02:43;17.50;99.90
780;DHT22;373;49.342;8.146;2022-09-11T02:05:14;17.60;99.90
780;DHT22;373;49.342;8.146;2022-09-11T02:07:47;17.70;99.90
780;DHT22;373;49.342;8.146;2022-09-11T02:10:17;17.60;99.90
780;DHT22;373;49.342;8.146;2022-09-11T02:12:51;17.70;99.90
780;DHT22;373;49.342;8.146;2022-09-11T02:15:27;17.70;99.90
780;DHT22;373;49.342;8.146;2022-09-11T02:18:00;17.60;99.90
780;DHT22;373;49.342;8.146;2022-09-11T02:20:28;17.70;99.90
780;DHT22;373;49.342;8.146;2022-09-11T02:22:56;17.80;99.90
780;DHT22;373;49.342;8.146;2022-09-11T02:25:23;17.80;99.90
780;DHT22;373;49.342;8.146;2022-09-11T02:27:55;17.70;99.90
780;DHT22;373;49.342;8.146;2022-09-11T02:30:23;17.50;99.90
780;DHT22;373;49.342;8.146;2022-09-11T02:32:53;17.50;99.90
780;DHT22;373;49.342;8.146;2022-09-11T02:35:21;17.50;99.90
780;DHT22;373;49.342;8.146;2022-09-11T02:37:58;17.60;99.90
780;DHT22;373;49.342;8.146;2022-09-11T02:40:39;17.40;99.90
780;DHT22;373;49.342;8.146;2022-09-11T02:43:31;17.40;99.90
780;DHT22;373;49.342;8.146;2022-09-11T02:46:21;17.70;99.90
780;DHT22;373;49.342;8.146;2022-09-11T02:48:56;17.50;99.90
780;DHT22;373;49.342;8.146;2022-09-11T02:51:33;17.20;99.90
780;DHT22;373;49.342;8.146;2022-09-11T02:54:09;17.10;99.90
780;DHT22;373;49.342;8.146;2022-09-11T02:56:41;17.30;99.90
780;DHT22;373;49.342;8.146;2022-09-11T02:59:16;17.20;99.90
780;DHT22;373;49.342;8.146;2022-09-11T03:01:47;17.30;99.90
780;DHT22;373;49.342;8.146;2022-09-11T03:04:16;17.40;99.90
780;DHT22;373;49.342;8.146;2022-09-11T03:06:44;17.50;99.90
780;DHT22;373;49.342;8.146;2022-09-11T03:09:13;17.40;99.90
780;DHT22;373;49.342;8.146;2022-09-11T03:11:41;17.50;99.90
780;DHT22;373;49.342;8.146;2022-09-11T03:14:09;17.60;99.90
780;DHT22;373;49.342;8.146;2022-09-11T03:16:38;17.50;99.90
780;DHT22;373;49.342;8.146;2022-09-11T03:19:08;17.40;99.90
780;DHT22;373;49.342;8.146;2022-09-11T03:21:37;17.40;99.90
780;DHT22;373;49.342;8.146;2022-09-11T03:24:05;17.60;99.90
780;DHT22;373;49.342;8.146;2022-09-11T03:26:35;17.40;99.90
780;DHT22;373;49.342;8.146;2022-09-11T03:29:03;17.30;99.90
780;DHT22;373;49.342;8.146;2022-09-11T03:31:30;17.20;99.90
780;DHT22;373;49.342;8.146;2022-09-11T03:33:58;17.00;99.90
780;DHT22;373;49.342;8.146;2022-09-11T03:36:26;17.00;99.90
780;DHT22;373;49.342;8.146;2022-09-11T03:38:54;17.00;99.90
780;DHT22;373;49.342;8.146;2022-09-11T03:41:21;17.00;99.90
780;DHT22;373;49.342;8.146;2022-09-11T03:43:49;17.00;99.90
780;DHT22;373;49.342;8.146;2022-09-11T03:46:16;17.00;99.90
780;DHT22;373;49.342;8.146;2022-09-11T03:48:44;17.00;99.90
780;DHT22;373;49.342;8.146;2022-09-11T03:51:12;17.00;99.90
780;DHT22;373;49.342;8.146;2022-09-11T03:53:42;17.20;99.90
780;DHT22;373;49.342;8.146;2022-09-11T03:56:11;17.30;99.90
780;DHT22;373;49.342;8.146;2022-09-11T03:58:44;17.40;99.90
780;DHT22;373;49.342;8.146;2022-09-11T04:01:13;17.80;99.90
780;DHT22;373;49.342;8.146;2022-09-11T04:03:41;17.80;99.90
780;DHT22;373;49.342;8.146;2022-09-11T04:06:14;17.70;99.90
780;DHT22;373;49.342;8.146;2022-09-11T04:08:43;17.50;99.90
780;DHT22;373;49.342;8.146;2022-09-11T04:11:11;17.50;99.90
780;DHT22;373;49.342;8.146;2022-09-11T04:13:40;17.60;99.90
780;DHT22;373;49.342;8.146;2022-09-11T04:16:13;17.70;99.90
780;DHT22;373;49.342;8.146;2022-09-11T04:18:44;17.90;99.90
780;DHT22;373;49.342;8.146;2022-09-11T04:21:13;17.80;99.90
780;DHT22;373;49.342;8.146;2022-09-11T04:23:43;17.80;99.90
780;DHT22;373;49.342;8.146;2022-09-11T04:26:15;17.80;99.90
780;DHT22;373;49.342;8.146;2022-09-11T04:28:45;17.80;99.90
780;DHT22;373;49.342;8.146;2022-09-11T04:31:14;17.90;99.90
780;DHT22;373;49.342;8.146;2022-09-11T04:33:42;17.70;99.90
780;DHT22;373;49.342;8.146;2022-09-11T04:36:11;17.80;99.90
780;DHT22;373;49.342;8.146;2022-09-11T04:38:39;17.80;99.90
780;DHT22;373;49.342;8.146;2022-09-11T04:41:12;17.70;99.90
780;DHT22;373;49.342;8.146;2022-09-11T04:43:40;17.60;99.90
780;DHT22;373;49.342;8.146;2022-09-11T04:46:12;17.60;99.90
780;DHT22;373;49.342;8.146;2022-09-11T04:48:45;17.60;99.90
780;DHT22;373;49.342;8.146;2022-09-11T04:51:20;17.70;99.90
780;DHT22;373;49.342;8.146;2022-09-11T04:53:48;17.50;99.90
780;DHT22;373;49.342;8.146;2022-09-11T04:56:18;17.50;99.90
780;DHT22;373;49.342;8.146;2022-09-11T04:58:51;17.60;99.90
780;DHT22;373;49.342;8.146;2022-09-11T05:01:22;17.60;99.90
780;DHT22;373;49.342;8.146;2022-09-11T05:03:52;17.70;99.90
780;DHT22;373;49.342;8.146;2022-09-11T05:06:21;17.60;99.90
780;DHT22;373;49.342;8.146;2022-09-11T05:08:49;17.50;99.90
780;DHT22;373;49.342;8.146;2022-09-11T05:11:19;17.60;99.90
780;DHT22;373;49.342;8.146;2022-09-11T05:13:47;17.50;99.90
780;DHT22;373;49.342;8.146;2022-09-11T05:16:15;17.60;99.90
780;DHT22;373;49.342;8.146;2022-09-11T05:18:48;17.90;99.90
780;DHT22;373;49.342;8.146;2022-09-11T05:21:19;17.70;99.90
780;DHT22;373;49.342;8.146;2022-09-11T05:23:49;17.70;99.90
780;DHT22;373;49.342;8.146;2022-09-11T05:26:19;17.90;99.90
780;DHT22;373;49.342;8.146;2022-09-11T05:28:52;17.80;99.90
780;DHT22;373;49.342;8.146;2022-09-11T05:31:19;18.20;99.90
780;DHT22;373;49.342;8.146;2022-09-11T05:33:47;18.30;99.90
780;DHT22;373;49.342;8.146;2022-09-11T05:36:15;18.30;99.90
780;DHT22;373;49.342;8.146;2022-09-11T05:38:43;18.50;99.90
780;DHT22;373;49.342;8.146;2022-09-11T05:41:12;18.40;99.90
780;DHT22;373;49.342;8.146;2022-09-11T05:43:41;18.20;99.90
780;DHT22;373;49.342;8.146;2022-09-11T05:46:12;18.00;99.90
780;DHT22;373;49.342;8.146;2022-09-11T05:48:39;18.10;99.90
780;DHT22;373;49.342;8.146;2022-09-11T05:51:10;18.00;99.90
780;DHT22;373;49.342;8.146;2022-09-11T05:53:38;18.00;99.90
780;DHT22;373;49.342;8.146;2022-09-11T05:56:09;17.90;99.90
780;DHT22;373;49.342;8.146;2022-09-11T05:58:36;18.00;99.90
780;DHT22;373;49.342;8.146;2022-09-11T06:01:08;18.10;99.90
780;DHT22;373;49.342;8.146;2022-09-11T06:03:37;18.10;99.90
780;DHT22;373;49.342;8.146;2022-09-11T06:06:06;18.20;99.90
780;DHT22;373;49.342;8.146;2022-09-11T06:08:36;18.40;99.90
780;DHT22;373;49.342;8.146;2022-09-11T06:11:06;18.60;99.90
780;DHT22;373;49.342;8.146;2022-09-11T06:13:35;18.80;99.90
780;DHT22;373;49.342;8.146;2022-09-11T06:16:05;19.10;99.90
780;DHT22;373;49.342;8.146;2022-09-11T06:18:33;19.20;99.90
780;DHT22;373;49.342;8.146;2022-09-11T06:21:03;19.00;99.90
780;DHT22;373;49.342;8.146;2022-09-11T06:23:39;19.10;99.90
780;DHT22;373;49.342;8.146;2022-09-11T06:26:08;18.90;99.90
780;DHT22;373;49.342;8.146;2022-09-11T06:28:38;19.20;99.90
780;DHT22;373;49.342;8.146;2022-09-11T06:31:09;19.40;99.90
780;DHT22;373;49.342;8.146;2022-09-11T06:33:38;19.40;99.90
780;DHT22;373;49.342;8.146;2022-09-11T06:36:08;19.20;99.90
780;DHT22;373;49.342;8.146;2022-09-11T06:38:36;19.00;99.90
780;DHT22;373;49.342;8.146;2022-09-11T06:41:08;18.90;99.90
780;DHT22;373;49.342;8.146;2022-09-11T06:43:37;18.60;99.90
780;DHT22;373;49.342;8.146;2022-09-11T06:46:09;18.40;99.90
780;DHT22;373;49.342;8.146;2022-09-11T06:48:37;18.60;99.90
780;DHT22;373;49.342;8.146;2022-09-11T06:51:08;18.60;99.90
780;DHT22;373;49.342;8.146;2022-09-11T06:53:36;18.60;99.90
780;DHT22;373;49.342;8.146;2022-09-11T06:56:10;18.90;99.90
780;DHT22;373;49.342;8.146;2022-09-11T06:58:39;19.10;99.90
780;DHT22;373;49.342;8.146;2022-09-11T07:01:11;19.40;99.90
780;DHT22;373;49.342;8.146;2022-09-11T07:03:41;19.40;99.90
780;DHT22;373;49.342;8.146;2022-09-11T07:06:10;19.40;99.90
780;DHT22;373;49.342;8.146;2022-09-11T07:08:39;19.30;99.90
780;DHT22;373;49.342;8.146;2022-09-11T07:11:07;18.90;99.90
780;DHT22;373;49.342;8.146;2022-09-11T07:13:36;19.10;99.90
780;DHT22;373;49.342;8.146;2022-09-11T07:16:06;19.20;99.90
780;DHT22;373;49.342;8.146;2022-09-11T07:18:37;19.40;99.90
780;DHT22;373;49.342;8.146;2022-09-11T07:21:10;19.70;99.90
780;DHT22;373;49.342;8.146;2022-09-11T07:23:39;20.00;99.90
780;DHT22;373;49.342;8.146;2022-09-11T07:26:09;20.00;99.90
780;DHT22;373;49.342;8.146;2022-09-11T07:28:38;19.80;99.90
780;DHT22;373;49.342;8.146;2022-09-11T07:31:07;19.90;99.90
780;DHT22;373;49.342;8.146;2022-09-11T07:33:39;20.60;99.90
780;DHT22;373;49.342;8.146;2022-09-11T07:36:08;21.20;99.90
780;DHT22;373;49.342;8.146;2022-09-11T07:38:40;21.20;99.90
780;DHT22;373;49.342;8.146;2022-09-11T07:41:09;21.40;99.90
780;DHT22;373;49.342;8.146;2022-09-11T07:43:38;20.90;99.90
780;DHT22;373;49.342;8.146;2022-09-11T07:46:07;20.40;99.90
780;DHT22;373;49.342;8.146;2022-09-11T07:48:35;20.10;99.90
780;DHT22;373;49.342;8.146;2022-09-11T07:51:06;19.90;99.90
780;DHT22;373;49.342;8.146;2022-09-11T07:53:35;19.60;99.90
780;DHT22;373;49.342;8.146;2022-09-11T07:56:04;19.70;99.90
780;DHT22;373;49.342;8.146;2022-09-11T07:58:34;19.50;99.90
780;DHT22;373;49.342;8.146;2022-09-11T08:01:03;19.50;99.90
780;DHT22;373;49.342;8.146;2022-09-11T08:03:31;19.40;99.90
780;DHT22;373;49.342;8.146;2022-09-11T08:06:00;19.50;99.90
780;DHT22;373;49.342;8.146;2022-09-11T08:08:29;19.70;99.90
780;DHT22;373;49.342;8.146;2022-09-11T08:11:02;19.80;99.90
780;DHT22;373;49.342;8.146;2022-09-11T08:13:29;20.00;99.90
780;DHT22;373;49.342;8.146;2022-09-11T08:15:56;19.70;99.90
780;DHT22;373;49.342;8.146;2022-09-11T08:18:24;19.70;99.90
780;DHT22;373;49.342;8.146;2022-09-11T08:20:51;19.80;99.90
780;DHT22;373;49.342;8.146;2022-09-11T08:23:19;20.10;99.90
780;DHT22;373;49.342;8.146;2022-09-11T08:25:48;20.10;99.90
780;DHT22;373;49.342;8.146;2022-09-11T08:28:16;20.10;99.90
780;DHT22;373;49.342;8.146;2022-09-11T08:30:43;20.40;99.90
780;DHT22;373;49.342;8.146;2022-09-11T08:33:11;20.20;99.90
780;DHT22;373;49.342;8.146;2022-09-11T08:35:39;20.20;99.90
780;DHT22;373;49.342;8.146;2022-09-11T08:38:06;20.20;99.90
780;DHT22;373;49.342;8.146;2022-09-11T08:40:35;20.10;99.90
780;DHT22;373;49.342;8.146;2022-09-11T08:43:09;21.10;99.90
780;DHT22;373;49.342;8.146;2022-09-11T08:45:39;21.70;99.90
780;DHT22;373;49.342;8.146;2022-09-11T08:48:06;21.90;99.90
780;DHT22;373;49.342;8.146;2022-09-11T08:50:38;22.00;99.90
780;DHT22;373;49.342;8.146;2022-09-11T08:53:11;22.30;99.90
780;DHT22;373;49.342;8.146;2022-09-11T08:55:43;22.10;99.90
780;DHT22;373;49.342;8.146;2022-09-11T08:58:22;22.10;99.90
780;DHT22;373;49.342;8.146;2022-09-11T09:01:00;22.20;99.30
780;DHT22;373;49.342;8.146;2022-09-11T09:03:39;22.90;99.40
780;DHT22;373;49.342;8.146;2022-09-11T09:06:25;23.80;96.70
780;DHT22;373;49.342;8.146;2022-09-11T09:09:04;23.90;97.10
780;DHT22;373;49.342;8.146;2022-09-11T09:11:37;24.70;95.20
780;DHT22;373;49.342;8.146;2022-09-11T09:14:38;25.30;93.40
780;DHT22;373;49.342;8.146;2022-09-11T09:17:14;25.40;93.50
780;DHT22;373;49.342;8.146;2022-09-11T09:19:44;25.30;92.90
780;DHT22;373;49.342;8.146;2022-09-11T09:22:18;24.70;93.30
780;DHT22;373;49.342;8.146;2022-09-11T09:24:50;25.20;93.00
780;DHT22;373;49.342;8.146;2022-09-11T09:27:24;26.00;91.90
780;DHT22;373;49.342;8.146;2022-09-11T09:29:58;25.80;91.70
780;DHT22;373;49.342;8.146;2022-09-11T09:32:29;25.80;91.30
780;DHT22;373;49.342;8.146;2022-09-11T09:35:03;25.40;92.30
780;DHT22;373;49.342;8.146;2022-09-11T09:37:32;25.10;93.10
780;DHT22;373;49.342;8.146;2022-09-11T09:40:01;24.50;92.90
780;DHT22;373;49.342;8.146;2022-09-11T09:43:16;24.50;94.00
780;DHT22;373;49.342;8.146;2022-09-11T09:46:03;25.20;92.50
780;DHT22;373;49.342;8.146;2022-09-11T09:48:35;25.40;90.80
780;DHT22;373;49.342;8.146;2022-09-11T09:51:04;25.20;92.00
780;DHT22;373;49.342;8.146;2022-09-11T09:53:36;24.80;91.50
780;DHT22;373;49.342;8.146;2022-09-11T09:56:05;24.70;92.40
780;DHT22;373;49.342;8.146;2022-09-11T09:58:38;24.80;92.70
780;DHT22;373;49.342;8.146;2022-09-11T10:01:42;25.50;91.30
780;DHT22;373;49.342;8.146;2022-09-11T10:04:13;25.70;91.30
780;DHT22;373;49.342;8.146;2022-09-11T10:06:41;25.40;91.00
780;DHT22;373;49.342;8.146;2022-09-11T10:09:24;25.80;91.00
780;DHT22;373;49.342;8.146;2022-09-11T10:11:58;26.50;90.50
780;DHT22;373;49.342;8.146;2022-09-11T10:14:30;26.60;88.60
780;DHT22;373;49.342;8.146;2022-09-11T10:17:00;26.90;85.30
780;DHT22;373;49.342;8.146;2022-09-11T10:19:40;26.80;85.20
780;DHT22;373;49.342;8.146;2022-09-11T10:22:26;27.20;84.80
780;DHT22;373;49.342;8.146;2022-09-11T10:25:07;27.00;83.10
780;DHT22;373;49.342;8.146;2022-09-11T10:27:42;26.30;85.20
780;DHT22;373;49.342;8.146;2022-09-11T10:30:27;25.20;88.90
780;DHT22;373;49.342;8.146;2022-09-11T10:32:57;25.10;88.40
780;DHT22;373;49.342;8.146;2022-09-11T10:35:25;25.40;87.60
780;DHT22;373;49.342;8.146;2022-09-11T10:38:14;24.80;89.50
780;DHT22;373;49.342;8.146;2022-09-11T10:40:53;24.80;90.00
780;DHT22;373;49.342;8.146;2022-09-11T10:43:25;24.70;90.40
780;DHT22;373;49.342;8.146;2022-09-11T10:46:01;24.90;89.90
780;DHT22;373;49.342;8.146;2022-09-11T10:48:30;24.70;87.10
780;DHT22;373;49.342;8.146;2022-09-11T10:51:05;24.70;90.20
780;DHT22;373;49.342;8.146;2022-09-11T10:53:45;25.00;84.80
780;DHT22;373;49.342;8.146;2022-09-11T10:56:14;25.00;84.50
780;DHT22;373;49.342;8.146;2022-09-11T10:58:43;25.20;84.00
780;DHT22;373;49.342;8.146;2022-09-11T11:01:12;25.30;84.00
780;DHT22;373;49.342;8.146;2022-09-11T11:03:40;25.20;85.00
780;DHT22;373;49.342;8.146;2022-09-11T11:06:19;24.80;88.80
780;DHT22;373;49.342;8.146;2022-09-11T11:09:04;25.00;88.00
780;DHT22;373;49.342;8.146;2022-09-11T11:11:45;24.40;90.80
780;DHT22;373;49.342;8.146;2022-09-11T11:14:25;24.00;90.80
780;DHT22;373;49.342;8.146;2022-09-11T11:16:58;23.40;93.00
780;DHT22;373;49.342;8.146;2022-09-11T11:19:55;23.30;92.90
780;DHT22;373;49.342;8.146;2022-09-11T11:22:43;23.10;93.30
780;DHT22;373;49.342;8.146;2022-09-11T11:25:17;23.20;91.30
780;DHT22;373;49.342;8.146;2022-09-11T11:30:50;23.40;92.30
780;DHT22;373;49.342;8.146;2022-09-11T11:33:41;23.20;91.10
780;DHT22;373;49.342;8.146;2022-09-11T11:36:22;23.00;91.60
780;DHT22;373;49.342;8.146;2022-09-11T11:38:54;22.90;91.50
780;DHT22;373;49.342;8.146;2022-09-11T11:41:29;22.90;92.40
780;DHT22;373;49.342;8.146;2022-09-11T11:44:01;23.00;91.90
780;DHT22;373;49.342;8.146;2022-09-11T11:46:33;23.30;91.40
780;DHT22;373;49.342;8.146;2022-09-11T11:49:06;23.60;91.10
780;DHT22;373;49.342;8.146;2022-09-11T11:51:43;23.40;91.20
780;DHT22;373;49.342;8.146;2022-09-11T11:54:16;23.30;91.20
780;DHT22;373;49.342;8.146;2022-09-11T11:56:48;23.40;91.10
780;DHT22;373;49.342;8.146;2022-09-11T11:59:23;23.80;91.00
780;DHT22;373;49.342;8.146;2022-09-11T12:01:59;24.00;90.50
780;DHT22;373;49.342;8.146;2022-09-11T12:04:35;23.80;90.20
780;DHT22;373;49.342;8.146;2022-09-11T12:07:14;23.80;89.70
780;DHT22;373;49.342;8.146;2022-09-11T12:09:45;23.70;90.40
780;DHT22;373;49.342;8.146;2022-09-11T12:12:15;23.70;90.90
780;DHT22;373;49.342;8.146;2022-09-11T12:14:48;23.40;90.40
780;DHT22;373;49.342;8.146;2022-09-11T12:17:24;23.40;90.20
780;DHT22;373;49.342;8.146;2022-09-11T12:20:28;23.40;90.90
780;DHT22;373;49.342;8.146;2022-09-11T12:22:58;24.10;91.40
780;DHT22;373;49.342;8.146;2022-09-11T12:26:03;24.20;90.30
780;DHT22;373;49.342;8.146;2022-09-11T12:28:31;24.10;90.60
780;DHT22;373;49.342;8.146;2022-09-11T12:31:01;23.80;91.00
780;DHT22;373;49.342;8.146;2022-09-11T12:33:50;23.40;91.60
780;DHT22;373;49.342;8.146;2022-09-11T12:36:23;23.40;92.40
780;DHT22;373;49.342;8.146;2022-09-11T12:38:58;23.20;92.20
780;DHT22;373;49.342;8.146;2022-09-11T12:41:28;22.70;93.10
780;DHT22;373;49.342;8.146;2022-09-11T12:43:56;22.50;94.40
780;DHT22;373;49.342;8.146;2022-09-11T12:49:33;22.60;94.70
780;DHT22;373;49.342;8.146;2022-09-11T12:52:02;22.90;94.70
780;DHT22;373;49.342;8.146;2022-09-11T12:54:36;23.00;93.80
780;DHT22;373;49.342;8.146;2022-09-11T12:57:07;22.80;94.00
780;DHT22;373;49.342;8.146;2022-09-11T12:59:37;22.60;94.60
780;DHT22;373;49.342;8.146;2022-09-11T13:02:22;22.30;95.00
780;DHT22;373;49.342;8.146;2022-09-11T13:04:51;22.30;95.80
780;DHT22;373;49.342;8.146;2022-09-11T13:07:25;22.20;96.10
780;DHT22;373;49.342;8.146;2022-09-11T13:09:57;22.30;96.50
780;DHT22;373;49.342;8.146;2022-09-11T13:12:51;22.30;95.90
780;DHT22;373;49.342;8.146;2022-09-11T13:15:35;22.20;96.20
780;DHT22;373;49.342;8.146;2022-09-11T13:18:27;22.30;95.80
780;DHT22;373;49.342;8.146;2022-09-11T13:21:00;22.50;95.80
780;DHT22;373;49.342;8.146;2022-09-11T13:23:29;22.30;96.50
780;DHT22;373;49.342;8.146;2022-09-11T13:26:00;22.30;96.30
780;DHT22;373;49.342;8.146;2022-09-11T13:28:27;22.30;96.50
780;DHT22;373;49.342;8.146;2022-09-11T13:30:58;22.30;96.50
780;DHT22;373;49.342;8.146;2022-09-11T13:33:28;22.30;95.10
780;DHT22;373;49.342;8.146;2022-09-11T13:35:57;22.00;96.50
780;DHT22;373;49.342;8.146;2022-09-11T13:38:29;22.00;97.90
780;DHT22;373;49.342;8.146;2022-09-11T13:41:00;21.90;97.80
780;DHT22;373;49.342;8.146;2022-09-11T13:43:34;21.90;96.80
780;DHT22;373;49.342;8.146;2022-09-11T13:46:18;21.80;97.90
780;DHT22;373;49.342;8.146;2022-09-11T13:48:48;21.90;97.90
780;DHT22;373;49.342;8.146;2022-09-11T13:51:17;21.90;96.30
780;DHT22;373;49.342;8.146;2022-09-11T13:53:47;22.10;96.30
780;DHT22;373;49.342;8.146;2022-09-11T13:56:41;22.30;96.10
780;DHT22;373;49.342;8.146;2022-09-11T13:59:35;22.40;95.10
780;DHT22;373;49.342;8.146;2022-09-11T14:02:13;22.50;94.30
780;DHT22;373;49.342;8.146;2022-09-11T14:04:42;22.40;94.80
780;DHT22;373;49.342;8.146;2022-09-11T14:07:19;22.40;94.90
780;DHT22;373;49.342;8.146;2022-09-11T14:09:53;22.60;95.50
780;DHT22;373;49.342;8.146;2022-09-11T14:12:26;22.70;94.80
780;DHT22;373;49.342;8.146;2022-09-11T14:14:56;22.80;94.90
780;DHT22;373;49.342;8.146;2022-09-11T14:17:24;22.70;93.80
780;DHT22;373;49.342;8.146;2022-09-11T14:19:52;22.80;94.60
780;DHT22;373;49.342;8.146;2022-09-11T14:22:23;23.00;93.10
780;DHT22;373;49.342;8.146;2022-09-11T14:24:55;22.70;93.60
780;DHT22;373;49.342;8.146;2022-09-11T14:27:41;22.80;93.90
780;DHT22;373;49.342;8.146;2022-09-11T14:30:31;23.00;92.80
780;DHT22;373;49.342;8.146;2022-09-11T14:33:16;23.10;92.60
780;DHT22;373;49.342;8.146;2022-09-11T14:35:47;23.30;92.70
780;DHT22;373;49.342;8.146;2022-09-11T14:38:17;23.40;92.70
780;DHT22;373;49.342;8.146;2022-09-11T14:40:49;23.40;92.80
780;DHT22;373;49.342;8.146;2022-09-11T14:43:24;23.40;93.10
780;DHT22;373;49.342;8.146;2022-09-11T14:45:52;23.80;92.40
780;DHT22;373;49.342;8.146;2022-09-11T14:48:20;23.70;91.80
780;DHT22;373;49.342;8.146;2022-09-11T14:50:47;23.50;92.50
780;DHT22;373;49.342;8.146;2022-09-11T14:53:17;23.30;93.80
780;DHT22;373;49.342;8.146;2022-09-11T14:55:47;23.30;93.70
780;DHT22;373;49.342;8.146;2022-09-11T14:58:16;23.40;94.10
780;DHT22;373;49.342;8.146;2022-09-11T15:00:44;23.70;94.10
780;DHT22;373;49.342;8.146;2022-09-11T15:03:11;23.30;93.60
780;DHT22;373;49.342;8.146;2022-09-11T15:05:39;23.10;94.10
780;DHT22;373;49.342;8.146;2022-09-11T15:08:06;23.10;94.00
780;DHT22;373;49.342;8.146;2022-09-11T15:10:33;23.20;94.00
780;DHT22;373;49.342;8.146;2022-09-11T15:13:00;23.20;94.00
780;DHT22;373;49.342;8.146;2022-09-11T15:15:29;23.00;95.10
780;DHT22;373;49.342;8.146;2022-09-11T15:18:01;23.00;95.10
780;DHT22;373;49.342;8.146;2022-09-11T15:20:28;23.20;95.20
780;DHT22;373;49.342;8.146;2022-09-11T15:22:55;23.10;95.30
780;DHT22;373;49.342;8.146;2022-09-11T15:25:23;22.80;96.90
780;DHT22;373;49.342;8.146;2022-09-11T15:27:51;22.70;97.30
780;DHT22;373;49.342;8.146;2022-09-11T15:30:19;22.80;97.00
780;DHT22;373;49.342;8.146;2022-09-11T15:32:47;22.70;97.30
780;DHT22;373;49.342;8.146;2022-09-11T15:35:15;22.60;98.00
780;DHT22;373;49.342;8.146;2022-09-11T15:37:44;22.70;97.50
780;DHT22;373;49.342;8.146;2022-09-11T15:40:12;23.10;96.30
780;DHT22;373;49.342;8.146;2022-09-11T15:42:40;23.40;95.70
780;DHT22;373;49.342;8.146;2022-09-11T15:45:08;23.60;94.80
780;DHT22;373;49.342;8.146;2022-09-11T15:47:37;23.80;93.50
780;DHT22;373;49.342;8.146;2022-09-11T15:50:05;23.60;93.50
780;DHT22;373;49.342;8.146;2022-09-11T15:52:34;23.20;93.10
780;DHT22;373;49.342;8.146;2022-09-11T15:55:03;22.90;95.90
780;DHT22;373;49.342;8.146;2022-09-11T15:57:30;22.80;96.70
780;DHT22;373;49.342;8.146;2022-09-11T15:59:59;22.80;95.60
780;DHT22;373;49.342;8.146;2022-09-11T16:02:26;22.90;93.70
780;DHT22;373;49.342;8.146;2022-09-11T16:04:53;23.10;91.90
780;DHT22;373;49.342;8.146;2022-09-11T16:07:21;23.10;91.40
780;DHT22;373;49.342;8.146;2022-09-11T16:09:49;23.30;92.30
780;DHT22;373;49.342;8.146;2022-09-11T16:12:17;23.40;91.80
780;DHT22;373;49.342;8.146;2022-09-11T16:14:44;23.40;91.80
780;DHT22;373;49.342;8.146;2022-09-11T16:17:11;23.30;92.10
780;DHT22;373;49.342;8.146;2022-09-11T16:19:41;23.30;92.80
780;DHT22;373;49.342;8.146;2022-09-11T16:22:08;23.50;92.50
780;DHT22;373;49.342;8.146;2022-09-11T16:24:35;23.70;92.20
780;DHT22;373;49.342;8.146;2022-09-11T16:27:05;23.70;92.00
780;DHT22;373;49.342;8.146;2022-09-11T16:29:33;23.50;92.60
780;DHT22;373;49.342;8.146;2022-09-11T16:32:01;23.50;92.40
780;DHT22;373;49.342;8.146;2022-09-11T16:34:28;23.30;92.30
780;DHT22;373;49.342;8.146;2022-09-11T16:36:56;23.10;92.70
780;DHT22;373;49.342;8.146;2022-09-11T16:39:23;23.20;92.30
780;DHT22;373;49.342;8.146;2022-09-11T16:41:50;23.10;92.70
780;DHT22;373;49.342;8.146;2022-09-11T16:44:18;23.20;92.30
780;DHT22;373;49.342;8.146;2022-09-11T16:46:46;23.40;92.10
780;DHT22;373;49.342;8.146;2022-09-11T16:49:15;23.60;92.00
780;DHT22;373;49.342;8.146;2022-09-11T16:51:44;23.60;91.60
780;DHT22;373;49.342;8.146;2022-09-11T16:54:12;23.50;91.90
780;DHT22;373;49.342;8.146;2022-09-11T16:56:39;23.30;93.10
780;DHT22;373;49.342;8.146;2022-09-11T16:59:06;23.30;93.80
780;DHT22;373;49.342;8.146;2022-09-11T17:01:35;23.10;94.00
780;DHT22;373;49.342;8.146;2022-09-11T17:04:02;23.00;94.90
780;DHT22;373;49.342;8.146;2022-09-11T17:06:30;23.00;95.90
780;DHT22;373;49.342;8.146;2022-09-11T17:08:58;23.20;96.40
780;DHT22;373;49.342;8.146;2022-09-11T17:11:27;23.40;96.00
780;DHT22;373;49.342;8.146;2022-09-11T17:13:54;23.30;96.20